Terminal Aerodrome Forecast
Issued by NWS Pueblo, CO

Home | Current Version | Previous Version | Text Only | Print | Product List | Glossary On
Versions: 1 2 3 4 5 6 7 8 9 10 11 12 13 14 15 16 17 18 19 20 21 22 23 24 25
000
FTUS45 KPUB 220857 AAA
TAFCOS
TAF AMD
KCOS 220857Z 2209/2306 32014KT P6SM VCSH SCT050 OVC100
     FM221100 VRB06KT P6SM FEW040 SCT100 BKN150
     FM221800 06007G17KT P6SM VCTS FEW040 SCT060CB BKN080
      TEMPO 2220/2224 4SM +TSRA BKN035CB OVC060
     FM230300 35009KT P6SM SCT070 BKN120=

USA.gov is the U.S. government's official web portal to all federal, state and local government web resources and services.